sensor_id;sensor_type;location;lat;lon;timestamp;P1;durP1;ratioP1;P2;durP2;ratioP2
9763;SDS011;4921;43.214;27.936;2023-05-23T00:01:02;4.13;;;3.27;;
9763;SDS011;4921;43.214;27.936;2023-05-23T00:03:31;4.50;;;2.57;;
9763;SDS011;4921;43.214;27.936;2023-05-23T00:05:58;4.17;;;3.13;;
9763;SDS011;4921;43.214;27.936;2023-05-23T00:08:26;6.10;;;3.10;;
9763;SDS011;4921;43.214;27.936;2023-05-23T00:10:55;7.87;;;2.77;;
9763;SDS011;4921;43.214;27.936;2023-05-23T00:13:22;4.83;;;2.80;;
9763;SDS011;4921;43.214;27.936;2023-05-23T00:15:49;4.60;;;2.83;;
9763;SDS011;4921;43.214;27.936;2023-05-23T00:18:16;3.43;;;3.00;;
9763;SDS011;4921;43.214;27.936;2023-05-23T00:20:44;6.60;;;3.10;;
9763;SDS011;4921;43.214;27.936;2023-05-23T00:23:11;3.17;;;2.70;;
9763;SDS011;4921;43.214;27.936;2023-05-23T00:25:43;4.60;;;2.90;;
9763;SDS011;4921;43.214;27.936;2023-05-23T00:28:14;4.33;;;3.03;;
9763;SDS011;4921;43.214;27.936;2023-05-23T00:30:41;8.27;;;3.10;;
9763;SDS011;4921;43.214;27.936;2023-05-23T00:33:08;4.10;;;2.90;;
9763;SDS011;4921;43.214;27.936;2023-05-23T00:35:38;5.90;;;3.23;;
9763;SDS011;4921;43.214;27.936;2023-05-23T00:38:04;3.27;;;2.50;;
9763;SDS011;4921;43.214;27.936;2023-05-23T00:40:32;7.87;;;2.90;;
9763;SDS011;4921;43.214;27.936;2023-05-23T00:42:59;5.20;;;2.83;;
9763;SDS011;4921;43.214;27.936;2023-05-23T00:45:27;4.03;;;2.73;;
9763;SDS011;4921;43.214;27.936;2023-05-23T00:47:54;4.37;;;3.07;;
9763;SDS011;4921;43.214;27.936;2023-05-23T00:50:23;3.53;;;2.70;;
9763;SDS011;4921;43.214;27.936;2023-05-23T00:52:53;5.63;;;3.00;;
9763;SDS011;4921;43.214;27.936;2023-05-23T00:55:21;4.43;;;3.23;;
9763;SDS011;4921;43.214;27.936;2023-05-23T00:57:49;4.67;;;3.10;;
9763;SDS011;4921;43.214;27.936;2023-05-23T01:00:18;6.63;;;3.07;;
9763;SDS011;4921;43.214;27.936;2023-05-23T01:02:47;5.40;;;3.20;;
9763;SDS011;4921;43.214;27.936;2023-05-23T01:05:18;6.40;;;3.30;;
9763;SDS011;4921;43.214;27.936;2023-05-23T01:08:09;6.00;;;2.93;;
9763;SDS011;4921;43.214;27.936;2023-05-23T01:10:36;5.00;;;3.30;;
9763;SDS011;4921;43.214;27.936;2023-05-23T01:13:05;3.80;;;3.17;;
9763;SDS011;4921;43.214;27.936;2023-05-23T01:15:44;4.00;;;3.10;;
9763;SDS011;4921;43.214;27.936;2023-05-23T01:18:25;8.43;;;3.30;;
9763;SDS011;4921;43.214;27.936;2023-05-23T01:20:56;4.90;;;3.07;;
9763;SDS011;4921;43.214;27.936;2023-05-23T01:26:40;3.00;;;2.80;;
9763;SDS011;4921;43.214;27.936;2023-05-23T01:29:19;5.67;;;2.87;;
9763;SDS011;4921;43.214;27.936;2023-05-23T01:31:51;5.33;;;2.93;;
9763;SDS011;4921;43.214;27.936;2023-05-23T01:34:20;4.03;;;3.10;;
9763;SDS011;4921;43.214;27.936;2023-05-23T01:36:48;5.37;;;2.93;;
9763;SDS011;4921;43.214;27.936;2023-05-23T01:39:16;5.33;;;2.87;;
9763;SDS011;4921;43.214;27.936;2023-05-23T01:41:43;3.50;;;3.20;;
9763;SDS011;4921;43.214;27.936;2023-05-23T01:44:10;5.67;;;3.30;;
9763;SDS011;4921;43.214;27.936;2023-05-23T01:46:38;5.20;;;3.00;;
9763;SDS011;4921;43.214;27.936;2023-05-23T01:49:07;3.53;;;3.23;;
9763;SDS011;4921;43.214;27.936;2023-05-23T01:51:37;6.13;;;3.13;;
9763;SDS011;4921;43.214;27.936;2023-05-23T01:54:05;4.83;;;2.90;;
9763;SDS011;4921;43.214;27.936;2023-05-23T01:56:32;5.87;;;3.43;;
9763;SDS011;4921;43.214;27.936;2023-05-23T01:58:59;7.90;;;3.47;;
9763;SDS011;4921;43.214;27.936;2023-05-23T02:01:27;8.97;;;3.23;;
9763;SDS011;4921;43.214;27.936;2023-05-23T02:03:56;6.77;;;3.40;;
9763;SDS011;4921;43.214;27.936;2023-05-23T02:06:23;6.37;;;3.00;;
9763;SDS011;4921;43.214;27.936;2023-05-23T02:08:50;6.93;;;3.43;;
9763;SDS011;4921;43.214;27.936;2023-05-23T02:11:17;4.73;;;3.20;;
9763;SDS011;4921;43.214;27.936;2023-05-23T02:13:44;3.93;;;2.87;;
9763;SDS011;4921;43.214;27.936;2023-05-23T02:16:11;4.80;;;2.83;;
9763;SDS011;4921;43.214;27.936;2023-05-23T02:18:39;5.33;;;3.20;;
9763;SDS011;4921;43.214;27.936;2023-05-23T02:21:08;6.67;;;3.27;;
9763;SDS011;4921;43.214;27.936;2023-05-23T02:23:35;4.80;;;3.53;;
9763;SDS011;4921;43.214;27.936;2023-05-23T02:26:02;4.43;;;3.33;;
9763;SDS011;4921;43.214;27.936;2023-05-23T02:28:29;5.90;;;3.33;;
9763;SDS011;4921;43.214;27.936;2023-05-23T02:30:56;4.03;;;3.10;;
9763;SDS011;4921;43.214;27.936;2023-05-23T02:33:23;5.23;;;3.57;;
9763;SDS011;4921;43.214;27.936;2023-05-23T02:35:50;6.27;;;2.87;;
9763;SDS011;4921;43.214;27.936;2023-05-23T02:38:21;5.03;;;3.27;;
9763;SDS011;4921;43.214;27.936;2023-05-23T02:40:47;3.90;;;2.97;;
9763;SDS011;4921;43.214;27.936;2023-05-23T02:43:16;5.70;;;3.37;;
9763;SDS011;4921;43.214;27.936;2023-05-23T02:45:43;4.33;;;3.13;;
9763;SDS011;4921;43.214;27.936;2023-05-23T02:48:10;4.90;;;3.30;;
9763;SDS011;4921;43.214;27.936;2023-05-23T02:50:37;3.20;;;2.90;;
9763;SDS011;4921;43.214;27.936;2023-05-23T02:53:04;4.70;;;2.90;;
9763;SDS011;4921;43.214;27.936;2023-05-23T02:55:32;5.83;;;3.10;;
9763;SDS011;4921;43.214;27.936;2023-05-23T02:57:59;4.53;;;3.23;;
9763;SDS011;4921;43.214;27.936;2023-05-23T03:00:30;6.30;;;2.80;;
9763;SDS011;4921;43.214;27.936;2023-05-23T03:02:57;6.60;;;3.13;;
9763;SDS011;4921;43.214;27.936;2023-05-23T03:05:24;3.10;;;2.80;;
9763;SDS011;4921;43.214;27.936;2023-05-23T03:07:51;5.53;;;3.20;;
9763;SDS011;4921;43.214;27.936;2023-05-23T03:10:18;7.27;;;3.37;;
9763;SDS011;4921;43.214;27.936;2023-05-23T03:12:47;6.50;;;3.07;;
9763;SDS011;4921;43.214;27.936;2023-05-23T03:15:13;4.90;;;3.13;;
9763;SDS011;4921;43.214;27.936;2023-05-23T03:17:40;7.13;;;2.97;;
9763;SDS011;4921;43.214;27.936;2023-05-23T03:20:08;3.90;;;3.53;;
9763;SDS011;4921;43.214;27.936;2023-05-23T03:22:36;8.23;;;3.23;;
9763;SDS011;4921;43.214;27.936;2023-05-23T03:25:03;6.53;;;3.13;;
9763;SDS011;4921;43.214;27.936;2023-05-23T03:27:30;4.93;;;3.30;;
9763;SDS011;4921;43.214;27.936;2023-05-23T03:29:59;4.97;;;3.27;;
9763;SDS011;4921;43.214;27.936;2023-05-23T03:32:26;3.70;;;3.30;;
9763;SDS011;4921;43.214;27.936;2023-05-23T03:34:53;7.10;;;3.47;;
9763;SDS011;4921;43.214;27.936;2023-05-23T03:37:20;7.20;;;3.50;;
9763;SDS011;4921;43.214;27.936;2023-05-23T03:39:47;3.10;;;2.80;;
9763;SDS011;4921;43.214;27.936;2023-05-23T03:42:14;6.57;;;3.17;;
9763;SDS011;4921;43.214;27.936;2023-05-23T03:44:41;6.67;;;3.27;;
9763;SDS011;4921;43.214;27.936;2023-05-23T03:47:09;3.93;;;3.13;;
9763;SDS011;4921;43.214;27.936;2023-05-23T03:49:36;5.17;;;3.53;;
9763;SDS011;4921;43.214;27.936;2023-05-23T03:52:03;5.23;;;2.97;;
9763;SDS011;4921;43.214;27.936;2023-05-23T03:54:30;6.40;;;3.50;;
9763;SDS011;4921;43.214;27.936;2023-05-23T03:56:57;7.30;;;3.23;;
9763;SDS011;4921;43.214;27.936;2023-05-23T03:59:24;5.00;;;3.50;;
9763;SDS011;4921;43.214;27.936;2023-05-23T04:01:51;10.40;;;4.20;;
9763;SDS011;4921;43.214;27.936;2023-05-23T04:04:20;4.20;;;3.47;;
9763;SDS011;4921;43.214;27.936;2023-05-23T04:06:49;4.03;;;3.17;;
9763;SDS011;4921;43.214;27.936;2023-05-23T04:09:16;4.60;;;3.40;;
9763;SDS011;4921;43.214;27.936;2023-05-23T04:11:43;3.63;;;3.23;;
9763;SDS011;4921;43.214;27.936;2023-05-23T04:14:10;5.37;;;3.60;;
9763;SDS011;4921;43.214;27.936;2023-05-23T04:16:38;7.03;;;3.17;;
9763;SDS011;4921;43.214;27.936;2023-05-23T04:19:06;6.27;;;3.20;;
9763;SDS011;4921;43.214;27.936;2023-05-23T04:21:35;3.73;;;3.00;;
9763;SDS011;4921;43.214;27.936;2023-05-23T04:24:02;7.87;;;3.00;;
9763;SDS011;4921;43.214;27.936;2023-05-23T04:26:29;3.17;;;2.77;;
9763;SDS011;4921;43.214;27.936;2023-05-23T04:28:57;5.87;;;2.93;;
9763;SDS011;4921;43.214;27.936;2023-05-23T04:31:24;5.40;;;2.77;;
9763;SDS011;4921;43.214;27.936;2023-05-23T04:33:51;7.63;;;3.27;;
9763;SDS011;4921;43.214;27.936;2023-05-23T04:36:18;6.80;;;3.50;;
9763;SDS011;4921;43.214;27.936;2023-05-23T04:38:49;3.60;;;3.30;;
9763;SDS011;4921;43.214;27.936;2023-05-23T04:41:15;5.53;;;3.57;;
9763;SDS011;4921;43.214;27.936;2023-05-23T04:43:47;5.17;;;3.17;;
9763;SDS011;4921;43.214;27.936;2023-05-23T04:46:18;6.80;;;3.53;;
9763;SDS011;4921;43.214;27.936;2023-05-23T04:48:50;5.43;;;3.47;;
9763;SDS011;4921;43.214;27.936;2023-05-23T04:51:17;4.40;;;3.13;;
9763;SDS011;4921;43.214;27.936;2023-05-23T04:53:45;5.43;;;3.17;;
9763;SDS011;4921;43.214;27.936;2023-05-23T04:56:14;3.20;;;2.97;;
9763;SDS011;4921;43.214;27.936;2023-05-23T04:58:41;4.70;;;3.33;;
9763;SDS011;4921;43.214;27.936;2023-05-23T05:01:09;4.83;;;3.27;;
9763;SDS011;4921;43.214;27.936;2023-05-23T05:03:36;4.80;;;3.07;;
9763;SDS011;4921;43.214;27.936;2023-05-23T05:06:03;5.80;;;3.40;;
9763;SDS011;4921;43.214;27.936;2023-05-23T05:08:31;3.30;;;2.93;;
9763;SDS011;4921;43.214;27.936;2023-05-23T05:10:58;3.43;;;3.00;;
9763;SDS011;4921;43.214;27.936;2023-05-23T05:13:26;4.40;;;2.93;;
9763;SDS011;4921;43.214;27.936;2023-05-23T05:15:53;4.20;;;3.03;;
9763;SDS011;4921;43.214;27.936;2023-05-23T05:18:21;4.73;;;3.17;;
9763;SDS011;4921;43.214;27.936;2023-05-23T05:20:48;4.77;;;2.93;;
9763;SDS011;4921;43.214;27.936;2023-05-23T05:23:15;4.67;;;3.30;;
9763;SDS011;4921;43.214;27.936;2023-05-23T05:25:42;3.33;;;2.93;;
9763;SDS011;4921;43.214;27.936;2023-05-23T05:28:09;5.03;;;3.23;;
9763;SDS011;4921;43.214;27.936;2023-05-23T05:30:38;4.67;;;2.97;;
9763;SDS011;4921;43.214;27.936;2023-05-23T05:33:06;9.07;;;3.20;;
9763;SDS011;4921;43.214;27.936;2023-05-23T05:35:34;3.20;;;2.90;;
9763;SDS011;4921;43.214;27.936;2023-05-23T05:38:02;6.20;;;3.40;;
9763;SDS011;4921;43.214;27.936;2023-05-23T05:40:30;5.53;;;3.43;;
9763;SDS011;4921;43.214;27.936;2023-05-23T05:42:57;10.50;;;3.50;;
9763;SDS011;4921;43.214;27.936;2023-05-23T05:45:24;4.73;;;3.10;;
9763;SDS011;4921;43.214;27.936;2023-05-23T05:47:52;5.57;;;3.10;;
9763;SDS011;4921;43.214;27.936;2023-05-23T05:50:19;6.53;;;3.20;;
9763;SDS011;4921;43.214;27.936;2023-05-23T05:52:46;6.30;;;3.40;;
9763;SDS011;4921;43.214;27.936;2023-05-23T05:55:13;4.40;;;3.17;;
9763;SDS011;4921;43.214;27.936;2023-05-23T05:57:40;4.77;;;3.00;;
9763;SDS011;4921;43.214;27.936;2023-05-23T06:00:07;3.40;;;2.97;;
9763;SDS011;4921;43.214;27.936;2023-05-23T06:02:39;7.37;;;3.13;;
9763;SDS011;4921;43.214;27.936;2023-05-23T06:05:08;5.70;;;3.17;;
9763;SDS011;4921;43.214;27.936;2023-05-23T06:07:37;6.67;;;3.50;;
9763;SDS011;4921;43.214;27.936;2023-05-23T06:10:05;7.87;;;3.10;;
9763;SDS011;4921;43.214;27.936;2023-05-23T06:12:32;5.27;;;3.80;;
9763;SDS011;4921;43.214;27.936;2023-05-23T06:14:59;5.47;;;2.90;;
9763;SDS011;4921;43.214;27.936;2023-05-23T06:17:26;4.67;;;3.40;;
9763;SDS011;4921;43.214;27.936;2023-05-23T06:19:53;6.50;;;3.63;;
9763;SDS011;4921;43.214;27.936;2023-05-23T06:22:22;4.40;;;3.17;;
9763;SDS011;4921;43.214;27.936;2023-05-23T06:24:48;4.57;;;3.30;;
9763;SDS011;4921;43.214;27.936;2023-05-23T06:27:15;6.93;;;3.47;;
9763;SDS011;4921;43.214;27.936;2023-05-23T06:29:42;5.67;;;3.10;;
9763;SDS011;4921;43.214;27.936;2023-05-23T06:32:09;6.53;;;3.60;;
9763;SDS011;4921;43.214;27.936;2023-05-23T06:34:36;7.50;;;3.77;;
9763;SDS011;4921;43.214;27.936;2023-05-23T06:37:03;4.70;;;3.30;;
9763;SDS011;4921;43.214;27.936;2023-05-23T06:39:32;5.77;;;3.20;;
9763;SDS011;4921;43.214;27.936;2023-05-23T06:41:59;5.60;;;3.27;;
9763;SDS011;4921;43.214;27.936;2023-05-23T06:44:26;5.00;;;3.13;;
9763;SDS011;4921;43.214;27.936;2023-05-23T06:46:53;3.93;;;3.53;;
9763;SDS011;4921;43.214;27.936;2023-05-23T06:49:22;6.87;;;3.73;;
9763;SDS011;4921;43.214;27.936;2023-05-23T06:51:50;4.60;;;3.57;;
9763;SDS011;4921;43.214;27.936;2023-05-23T06:54:18;5.80;;;3.50;;
9763;SDS011;4921;43.214;27.936;2023-05-23T06:56:47;5.27;;;3.40;;
9763;SDS011;4921;43.214;27.936;2023-05-23T06:59:14;3.77;;;3.40;;
9763;SDS011;4921;43.214;27.936;2023-05-23T07:01:41;6.60;;;3.30;;
9763;SDS011;4921;43.214;27.936;2023-05-23T07:04:08;4.30;;;3.63;;
9763;SDS011;4921;43.214;27.936;2023-05-23T07:06:36;5.60;;;3.43;;
9763;SDS011;4921;43.214;27.936;2023-05-23T07:09:03;6.33;;;4.10;;
9763;SDS011;4921;43.214;27.936;2023-05-23T07:11:30;4.70;;;3.17;;
9763;SDS011;4921;43.214;27.936;2023-05-23T07:13:59;3.63;;;3.10;;
9763;SDS011;4921;43.214;27.936;2023-05-23T07:16:26;6.07;;;3.37;;
9763;SDS011;4921;43.214;27.936;2023-05-23T07:18:52;5.83;;;3.03;;
9763;SDS011;4921;43.214;27.936;2023-05-23T07:21:19;5.70;;;3.87;;
9763;SDS011;4921;43.214;27.936;2023-05-23T07:23:46;4.73;;;3.50;;
9763;SDS011;4921;43.214;27.936;2023-05-23T07:26:13;6.00;;;3.40;;
9763;SDS011;4921;43.214;27.936;2023-05-23T07:28:40;6.07;;;3.90;;
9763;SDS011;4921;43.214;27.936;2023-05-23T07:31:08;7.03;;;3.67;;
9763;SDS011;4921;43.214;27.936;2023-05-23T07:33:36;4.10;;;3.10;;
9763;SDS011;4921;43.214;27.936;2023-05-23T07:36:03;4.27;;;3.60;;
9763;SDS011;4921;43.214;27.936;2023-05-23T07:38:30;4.20;;;3.80;;
9763;SDS011;4921;43.214;27.936;2023-05-23T07:40:57;5.77;;;4.07;;
9763;SDS011;4921;43.214;27.936;2023-05-23T07:43:24;4.43;;;4.00;;
9763;SDS011;4921;43.214;27.936;2023-05-23T07:45:51;4.70;;;3.80;;
9763;SDS011;4921;43.214;27.936;2023-05-23T07:48:19;7.10;;;3.40;;
9763;SDS011;4921;43.214;27.936;2023-05-23T07:50:46;4.07;;;3.40;;
9763;SDS011;4921;43.214;27.936;2023-05-23T07:53:14;5.77;;;3.90;;
9763;SDS011;4921;43.214;27.936;2023-05-23T07:55:41;4.43;;;3.57;;
9763;SDS011;4921;43.214;27.936;2023-05-23T07:58:08;7.33;;;4.30;;
9763;SDS011;4921;43.214;27.936;2023-05-23T08:00:34;6.23;;;3.57;;
9763;SDS011;4921;43.214;27.936;2023-05-23T08:03:03;9.10;;;3.70;;
9763;SDS011;4921;43.214;27.936;2023-05-23T08:05:31;7.20;;;3.90;;
9763;SDS011;4921;43.214;27.936;2023-05-23T08:07:58;4.73;;;3.50;;
9763;SDS011;4921;43.214;27.936;2023-05-23T08:10:25;4.83;;;3.63;;
9763;SDS011;4921;43.214;27.936;2023-05-23T08:12:53;5.30;;;3.77;;
9763;SDS011;4921;43.214;27.936;2023-05-23T08:15:20;9.63;;;3.80;;
9763;SDS011;4921;43.214;27.936;2023-05-23T08:17:48;6.23;;;4.30;;
9763;SDS011;4921;43.214;27.936;2023-05-23T08:20:15;5.90;;;4.10;;
9763;SDS011;4921;43.214;27.936;2023-05-23T08:22:43;6.13;;;4.33;;
9763;SDS011;4921;43.214;27.936;2023-05-23T08:25:11;10.73;;;4.40;;
9763;SDS011;4921;43.214;27.936;2023-05-23T08:27:37;6.07;;;3.93;;
9763;SDS011;4921;43.214;27.936;2023-05-23T08:30:05;6.67;;;4.00;;
9763;SDS011;4921;43.214;27.936;2023-05-23T08:32:33;3.57;;;3.27;;
9763;SDS011;4921;43.214;27.936;2023-05-23T08:35:00;5.53;;;3.40;;
9763;SDS011;4921;43.214;27.936;2023-05-23T08:37:27;7.63;;;3.70;;
9763;SDS011;4921;43.214;27.936;2023-05-23T08:39:56;3.43;;;3.13;;
9763;SDS011;4921;43.214;27.936;2023-05-23T08:42:23;7.20;;;3.30;;
9763;SDS011;4921;43.214;27.936;2023-05-23T08:44:50;21.10;;;5.27;;
9763;SDS011;4921;43.214;27.936;2023-05-23T08:47:18;6.60;;;3.60;;
9763;SDS011;4921;43.214;27.936;2023-05-23T08:49:46;5.27;;;3.70;;
9763;SDS011;4921;43.214;27.936;2023-05-23T08:52:14;5.17;;;3.77;;
9763;SDS011;4921;43.214;27.936;2023-05-23T08:54:47;4.47;;;3.73;;
9763;SDS011;4921;43.214;27.936;2023-05-23T08:57:16;6.60;;;3.93;;
9763;SDS011;4921;43.214;27.936;2023-05-23T08:59:43;4.70;;;3.60;;
9763;SDS011;4921;43.214;27.936;2023-05-23T09:02:12;6.67;;;5.03;;
9763;SDS011;4921;43.214;27.936;2023-05-23T09:04:40;10.07;;;6.37;;
9763;SDS011;4921;43.214;27.936;2023-05-23T09:07:07;13.67;;;7.67;;
9763;SDS011;4921;43.214;27.936;2023-05-23T09:09:37;11.77;;;7.03;;
9763;SDS011;4921;43.214;27.936;2023-05-23T09:12:04;8.57;;;5.40;;
9763;SDS011;4921;43.214;27.936;2023-05-23T09:14:33;11.53;;;7.00;;
9763;SDS011;4921;43.214;27.936;2023-05-23T09:17:01;10.43;;;5.50;;
9763;SDS011;4921;43.214;27.936;2023-05-23T09:19:28;9.97;;;5.60;;
9763;SDS011;4921;43.214;27.936;2023-05-23T09:21:55;7.83;;;5.47;;
9763;SDS011;4921;43.214;27.936;2023-05-23T09:24:22;7.20;;;5.17;;
9763;SDS011;4921;43.214;27.936;2023-05-23T09:26:49;7.53;;;4.77;;
9763;SDS011;4921;43.214;27.936;2023-05-23T09:29:18;8.50;;;5.20;;
9763;SDS011;4921;43.214;27.936;2023-05-23T09:31:47;8.20;;;5.40;;
9763;SDS011;4921;43.214;27.936;2023-05-23T09:34:14;8.47;;;5.63;;
9763;SDS011;4921;43.214;27.936;2023-05-23T09:36:41;6.33;;;5.20;;
9763;SDS011;4921;43.214;27.936;2023-05-23T09:39:10;8.20;;;5.20;;
9763;SDS011;4921;43.214;27.936;2023-05-23T09:41:37;8.47;;;5.77;;
9763;SDS011;4921;43.214;27.936;2023-05-23T09:44:04;9.97;;;5.20;;
9763;SDS011;4921;43.214;27.936;2023-05-23T09:46:34;6.57;;;5.57;;
9763;SDS011;4921;43.214;27.936;2023-05-23T09:49:08;9.50;;;5.80;;
9763;SDS011;4921;43.214;27.936;2023-05-23T09:51:41;5.40;;;4.90;;
9763;SDS011;4921;43.214;27.936;2023-05-23T09:54:08;8.13;;;5.40;;
9763;SDS011;4921;43.214;27.936;2023-05-23T09:56:36;9.80;;;5.80;;
9763;SDS011;4921;43.214;27.936;2023-05-23T09:59:07;7.00;;;4.90;;
9763;SDS011;4921;43.214;27.936;2023-05-23T10:01:39;6.63;;;5.23;;
9763;SDS011;4921;43.214;27.936;2023-05-23T10:04:09;9.97;;;5.30;;
9763;SDS011;4921;43.214;27.936;2023-05-23T10:06:37;8.90;;;5.57;;
9763;SDS011;4921;43.214;27.936;2023-05-23T10:09:08;5.77;;;5.17;;
9763;SDS011;4921;43.214;27.936;2023-05-23T10:11:58;8.10;;;6.23;;
9763;SDS011;4921;43.214;27.936;2023-05-23T10:15:01;5.90;;;5.30;;
9763;SDS011;4921;43.214;27.936;2023-05-23T10:17:31;8.03;;;5.93;;
9763;SDS011;4921;43.214;27.936;2023-05-23T10:20:09;9.70;;;5.90;;
9763;SDS011;4921;43.214;27.936;2023-05-23T10:22:37;9.83;;;5.17;;
9763;SDS011;4921;43.214;27.936;2023-05-23T10:25:05;5.93;;;5.30;;
9763;SDS011;4921;43.214;27.936;2023-05-23T10:27:33;7.00;;;5.17;;
9763;SDS011;4921;43.214;27.936;2023-05-23T10:30:00;11.77;;;5.47;;
9763;SDS011;4921;43.214;27.936;2023-05-23T10:32:27;6.77;;;5.00;;
9763;SDS011;4921;43.214;27.936;2023-05-23T10:34:56;8.37;;;4.70;;
9763;SDS011;4921;43.214;27.936;2023-05-23T10:37:30;6.03;;;5.13;;
9763;SDS011;4921;43.214;27.936;2023-05-23T10:40:02;8.00;;;4.30;;
9763;SDS011;4921;43.214;27.936;2023-05-23T10:42:40;6.77;;;4.57;;
9763;SDS011;4921;43.214;27.936;2023-05-23T10:45:14;9.97;;;4.73;;
9763;SDS011;4921;43.214;27.936;2023-05-23T10:47:45;10.10;;;5.70;;
9763;SDS011;4921;43.214;27.936;2023-05-23T10:50:13;16.10;;;6.60;;
9763;SDS011;4921;43.214;27.936;2023-05-23T10:52:42;12.07;;;5.90;;
9763;SDS011;4921;43.214;27.936;2023-05-23T10:55:12;13.77;;;6.43;;
9763;SDS011;4921;43.214;27.936;2023-05-23T10:57:42;11.00;;;5.90;;
9763;SDS011;4921;43.214;27.936;2023-05-23T11:00:13;13.63;;;7.43;;
9763;SDS011;4921;43.214;27.936;2023-05-23T11:02:52;12.80;;;7.07;;
9763;SDS011;4921;43.214;27.936;2023-05-23T11:05:21;13.87;;;7.87;;
9763;SDS011;4921;43.214;27.936;2023-05-23T11:08:09;14.90;;;10.03;;
9763;SDS011;4921;43.214;27.936;2023-05-23T11:10:50;16.20;;;7.17;;
9763;SDS011;4921;43.214;27.936;2023-05-23T11:13:19;16.33;;;7.57;;
9763;SDS011;4921;43.214;27.936;2023-05-23T11:15:46;11.43;;;6.67;;
9763;SDS011;4921;43.214;27.936;2023-05-23T11:18:21;15.60;;;6.97;;
9763;SDS011;4921;43.214;27.936;2023-05-23T11:20:52;12.37;;;6.57;;
9763;SDS011;4921;43.214;27.936;2023-05-23T11:23:23;12.20;;;7.50;;
9763;SDS011;4921;43.214;27.936;2023-05-23T11:26:05;12.80;;;7.00;;
9763;SDS011;4921;43.214;27.936;2023-05-23T11:28:58;11.63;;;5.93;;
9763;SDS011;4921;43.214;27.936;2023-05-23T11:31:27;9.70;;;5.80;;
9763;SDS011;4921;43.214;27.936;2023-05-23T11:33:54;9.60;;;6.30;;
9763;SDS011;4921;43.214;27.936;2023-05-23T11:36:21;7.10;;;6.07;;
9763;SDS011;4921;43.214;27.936;2023-05-23T11:38:50;10.17;;;6.33;;
9763;SDS011;4921;43.214;27.936;2023-05-23T11:41:18;10.63;;;7.10;;
9763;SDS011;4921;43.214;27.936;2023-05-23T11:43:48;10.93;;;7.20;;
9763;SDS011;4921;43.214;27.936;2023-05-23T11:46:16;7.57;;;5.93;;
9763;SDS011;4921;43.214;27.936;2023-05-23T11:48:43;10.23;;;6.53;;
9763;SDS011;4921;43.214;27.936;2023-05-23T11:51:11;10.60;;;6.23;;
9763;SDS011;4921;43.214;27.936;2023-05-23T11:53:38;10.50;;;6.40;;
9763;SDS011;4921;43.214;27.936;2023-05-23T11:56:06;6.10;;;5.50;;
9763;SDS011;4921;43.214;27.936;2023-05-23T11:58:34;11.60;;;6.43;;
9763;SDS011;4921;43.214;27.936;2023-05-23T12:01:02;10.47;;;6.57;;
9763;SDS011;4921;43.214;27.936;2023-05-23T12:03:30;9.87;;;6.37;;
9763;SDS011;4921;43.214;27.936;2023-05-23T12:05:58;8.20;;;5.33;;
9763;SDS011;4921;43.214;27.936;2023-05-23T12:08:24;10.03;;;6.10;;
9763;SDS011;4921;43.214;27.936;2023-05-23T12:10:52;7.70;;;6.90;;
9763;SDS011;4921;43.214;27.936;2023-05-23T12:13:24;8.80;;;6.27;;
9763;SDS011;4921;43.214;27.936;2023-05-23T12:15:54;8.40;;;5.57;;
9763;SDS011;4921;43.214;27.936;2023-05-23T12:18:22;6.20;;;5.50;;
9763;SDS011;4921;43.214;27.936;2023-05-23T12:20:49;7.57;;;6.07;;
9763;SDS011;4921;43.214;27.936;2023-05-23T12:23:17;7.37;;;5.97;;
9763;SDS011;4921;43.214;27.936;2023-05-23T12:25:48;10.10;;;5.40;;
9763;SDS011;4921;43.214;27.936;2023-05-23T12:28:17;9.37;;;5.93;;
9763;SDS011;4921;43.214;27.936;2023-05-23T12:30:46;9.77;;;5.67;;
9763;SDS011;4921;43.214;27.936;2023-05-23T12:33:13;9.80;;;6.30;;
9763;SDS011;4921;43.214;27.936;2023-05-23T12:35:43;9.07;;;5.53;;
9763;SDS011;4921;43.214;27.936;2023-05-23T12:38:13;7.97;;;5.40;;
9763;SDS011;4921;43.214;27.936;2023-05-23T12:40:41;8.43;;;5.70;;
9763;SDS011;4921;43.214;27.936;2023-05-23T12:43:08;7.23;;;5.03;;
9763;SDS011;4921;43.214;27.936;2023-05-23T12:45:35;7.37;;;5.43;;
9763;SDS011;4921;43.214;27.936;2023-05-23T12:48:04;10.00;;;5.10;;
9763;SDS011;4921;43.214;27.936;2023-05-23T12:50:32;7.60;;;5.50;;
9763;SDS011;4921;43.214;27.936;2023-05-23T12:53:00;9.73;;;5.37;;
9763;SDS011;4921;43.214;27.936;2023-05-23T12:55:27;5.67;;;4.90;;
9763;SDS011;4921;43.214;27.936;2023-05-23T12:57:54;6.97;;;5.27;;
9763;SDS011;4921;43.214;27.936;2023-05-23T13:00:21;7.07;;;5.20;;
9763;SDS011;4921;43.214;27.936;2023-05-23T13:02:48;13.00;;;5.77;;
9763;SDS011;4921;43.214;27.936;2023-05-23T13:05:16;11.07;;;6.57;;
9763;SDS011;4921;43.214;27.936;2023-05-23T13:07:43;8.10;;;5.70;;
9763;SDS011;4921;43.214;27.936;2023-05-23T13:10:10;15.77;;;6.47;;
9763;SDS011;4921;43.214;27.936;2023-05-23T13:12:38;10.93;;;5.93;;
9763;SDS011;4921;43.214;27.936;2023-05-23T13:15:05;24.27;;;7.37;;
9763;SDS011;4921;43.214;27.936;2023-05-23T13:17:33;11.00;;;4.97;;
9763;SDS011;4921;43.214;27.936;2023-05-23T13:20:00;9.50;;;5.43;;
9763;SDS011;4921;43.214;27.936;2023-05-23T13:22:30;14.27;;;5.87;;
9763;SDS011;4921;43.214;27.936;2023-05-23T13:24:57;7.03;;;5.80;;
9763;SDS011;4921;43.214;27.936;2023-05-23T13:27:24;6.90;;;5.30;;
9763;SDS011;4921;43.214;27.936;2023-05-23T13:29:51;6.27;;;5.13;;
9763;SDS011;4921;43.214;27.936;2023-05-23T13:32:18;6.07;;;5.47;;
9763;SDS011;4921;43.214;27.936;2023-05-23T13:34:45;6.70;;;5.20;;
9763;SDS011;4921;43.214;27.936;2023-05-23T13:37:12;5.97;;;4.67;;
9763;SDS011;4921;43.214;27.936;2023-05-23T13:39:40;7.87;;;5.43;;
9763;SDS011;4921;43.214;27.936;2023-05-23T13:42:07;5.53;;;4.93;;
9763;SDS011;4921;43.214;27.936;2023-05-23T13:44:34;11.50;;;5.47;;
9763;SDS011;4921;43.214;27.936;2023-05-23T13:47:08;5.77;;;4.80;;
9763;SDS011;4921;43.214;27.936;2023-05-23T13:49:36;6.60;;;5.80;;
9763;SDS011;4921;43.214;27.936;2023-05-23T13:52:03;6.97;;;5.03;;
9763;SDS011;4921;43.214;27.936;2023-05-23T13:54:30;11.37;;;6.33;;
9763;SDS011;4921;43.214;27.936;2023-05-23T13:56:58;7.97;;;5.27;;
9763;SDS011;4921;43.214;27.936;2023-05-23T13:59:26;13.50;;;9.60;;
9763;SDS011;4921;43.214;27.936;2023-05-23T14:01:53;7.13;;;5.43;;
9763;SDS011;4921;43.214;27.936;2023-05-23T14:04:20;5.83;;;5.13;;
9763;SDS011;4921;43.214;27.936;2023-05-23T14:06:47;7.67;;;5.20;;
9763;SDS011;4921;43.214;27.936;2023-05-23T14:09:15;6.40;;;5.17;;
9763;SDS011;4921;43.214;27.936;2023-05-23T14:11:42;9.17;;;4.70;;
9763;SDS011;4921;43.214;27.936;2023-05-23T14:14:11;6.87;;;5.13;;
9763;SDS011;4921;43.214;27.936;2023-05-23T14:16:38;6.70;;;5.20;;
9763;SDS011;4921;43.214;27.936;2023-05-23T14:19:05;5.07;;;4.33;;
9763;SDS011;4921;43.214;27.936;2023-05-23T14:21:32;4.77;;;4.37;;
9763;SDS011;4921;43.214;27.936;2023-05-23T14:23:59;6.70;;;5.00;;
9763;SDS011;4921;43.214;27.936;2023-05-23T14:26:26;4.80;;;4.27;;
9763;SDS011;4921;43.214;27.936;2023-05-23T14:28:53;8.40;;;5.30;;
9763;SDS011;4921;43.214;27.936;2023-05-23T14:31:21;8.97;;;4.70;;
9763;SDS011;4921;43.214;27.936;2023-05-23T14:33:48;8.63;;;5.23;;
9763;SDS011;4921;43.214;27.936;2023-05-23T14:36:15;5.83;;;5.23;;
9763;SDS011;4921;43.214;27.936;2023-05-23T14:38:42;5.60;;;5.10;;
9763;SDS011;4921;43.214;27.936;2023-05-23T14:41:10;5.27;;;4.83;;
9763;SDS011;4921;43.214;27.936;2023-05-23T14:43:37;5.60;;;4.80;;
9763;SDS011;4921;43.214;27.936;2023-05-23T14:46:05;5.77;;;5.00;;
9763;SDS011;4921;43.214;27.936;2023-05-23T14:48:34;6.60;;;5.13;;
9763;SDS011;4921;43.214;27.936;2023-05-23T14:51:01;7.47;;;6.50;;
9763;SDS011;4921;43.214;27.936;2023-05-23T14:53:29;7.77;;;5.60;;
9763;SDS011;4921;43.214;27.936;2023-05-23T14:55:56;6.27;;;5.37;;
9763;SDS011;4921;43.214;27.936;2023-05-23T14:58:23;6.43;;;5.60;;
9763;SDS011;4921;43.214;27.936;2023-05-23T15:00:50;10.37;;;5.13;;
9763;SDS011;4921;43.214;27.936;2023-05-23T15:03:17;6.87;;;5.40;;
9763;SDS011;4921;43.214;27.936;2023-05-23T15:05:45;5.60;;;5.00;;
9763;SDS011;4921;43.214;27.936;2023-05-23T15:08:13;6.77;;;5.10;;
9763;SDS011;4921;43.214;27.936;2023-05-23T15:10:40;11.80;;;6.80;;